Flight Track Log - Related Links

Times and Time Zones

All times are in EDT time to prevent confusion due to time zone crossing. See the EJA929 flight status page for this flight to view local times or setup timezone preferences in your user account.

Time Position Orientation Groundspeed Altitude Reporting Facility
EDT Latitude Longitude Course Direction KTS km/h feet Rate Location/Type
Sat 09:07:09 33.8500 -84.3333 287° West 203 377 3.100  Level Atlanta TRACON
Sat 09:08:04 33.8667 -84.4000 287° West 200 370 4.800 950 Climbing Atlanta TRACON
Sat 09:09:09 33.8500 -84.4833 256° West 209 388 5.000 346 Climbing Atlanta TRACON
Sat 09:11:32 33.8389 -84.6292 265° West 212 393 6.000 621 Climbing Atlanta Center
Sat 09:12:32 33.8217 -84.7039 255° West 227 420 7.100 2.200 Climbing Atlanta Center
Sat 09:13:32 33.8025 -84.7889 255° West 258 478 10.400 3.300 Climbing Atlanta Center
Sat 09:14:32 33.7747 -84.8811 250° West 269 499 13.700 2.150 Climbing Atlanta Center
Sat 09:15:32 33.7344 -84.9706 242° Southwest 287 531 14.700 1.350 Climbing Atlanta Center
Sat 09:16:32 33.7419 -85.0806 275° West 322 597 16.400 1.750 Climbing Atlanta Center
Sat 09:17:32 33.7575 -85.1956 279° West 336 623 18.200 1.800 Climbing Atlanta Center
Sat 09:18:32 33.7814 -85.3111 284° West 351 650 20.000 1.850 Climbing Atlanta Center
Sat 09:19:32 33.8072 -85.4289 285° West 365 676 21.900 1.550 Climbing Atlanta Center
Sat 09:20:32 33.8331 -85.5569 284° West 379 702 23.100 1.350 Climbing Atlanta Center
Sat 09:21:32 33.8625 -85.6875 285° West 402 745 24.600 1.500 Climbing Atlanta Center
Sat 09:22:32 33.8900 -85.8206 284° West 413 764 26.100 1.500 Climbing Atlanta Center
Sat 09:23:32 33.9192 -85.9564 285° West 413 764 27.600 950 Climbing Atlanta Center
Sat 09:24:32 33.9106 -86.0989 266° West 412 763 28.000 200 Climbing Atlanta Center
Sat 09:25:32 33.8414 -86.2372 239° Southwest 437 810 28.000  Level Atlanta Center
Sat 09:26:32 33.7783 -86.3731 241° Southwest 455 843 28.000  Level Atlanta Center
Sat 09:27:32 33.7317 -86.5167 249° West 461 855 28.000  Level Atlanta Center
Sat 09:28:32 33.6828 -86.6675 249° West 474 877 28.000  Level Atlanta Center
Sat 09:29:32 33.6356 -86.8208 250° West 486 900 28.000  Level Atlanta Center
Sat 09:30:32 33.5883 -86.9639 248° West 486 900 28.000  Level Atlanta Center
Sat 09:31:32 33.5431 -87.1069 249° West 480 888 28.000  Level Atlanta Center
Sat 09:32:32 33.4958 -87.2447 248° West 463 858 28.000  Level Atlanta Center
Sat 09:33:32 33.4544 -87.3819 250° West 458 848 28.000  Level Memphis Center
Sat 09:34:32 33.4097 -87.5203 249° West 450 834 28.000  Level Memphis Center
Sat 09:35:32 33.3647 -87.6561 248° West 445 824 28.000  Level Memphis Center
Sat 09:36:32 33.3194 -87.7867 247° West 439 813 28.000  Level Memphis Center
Sat 09:37:32 33.2806 -87.9169 250° West 432 800 28.000  Level Memphis Center
Sat 09:38:32 33.2369 -88.0450 248° West 426 789 28.000  Level Memphis Center
Sat 09:39:32 33.1914 -88.1753 247° West 426 789 28.000  Level Memphis Center
Sat 09:40:32 33.1558 -88.2978 251° West 426 789 28.000  Level Memphis Center
Sat 09:41:32 33.1142 -88.4325 250° West 431 798 28.000  Level Memphis Center
Sat 09:42:32 33.0681 -88.5625 247° West 431 798 28.000  Level Memphis Center
Sat 09:43:32 33.0239 -88.6922 248° West 431 798 28.000  Level Memphis Center
Sat 09:44:32 32.9797 -88.8219 248° West 431 798 28.000  Level Memphis Center
Sat 09:45:32 32.9333 -88.9539 247° West 431 798 28.000  Level Memphis Center
Sat 09:46:32 32.8886 -89.0833 248° West 431 798 28.000  Level Memphis Center
Sat 09:47:32 32.8442 -89.2150 248° West 431 798 28.000  Level Memphis Center
Sat 09:48:32 32.7992 -89.3464 248° West 431 798 28.000  Level Memphis Center
Sat 09:49:32 32.7522 -89.4756 247° West 431 798 28.000  Level Memphis Center
Sat 09:50:32 32.7072 -89.6117 249° West 436 808 28.000 -900 Level Memphis Center
Sat 09:51:32 32.6578 -89.7428 246° West 436 808 26.200 -2.300 Descending Memphis Center
Sat 09:52:32 32.5917 -89.8814 241° Southwest 458 848 23.400 900 Descending Memphis Center
Sat 09:53:32 32.5275 -90.0100 239° Southwest 465 861 28.000 -3.150 Climbing Memphis Center
Sat 09:54:32 32.4672 -90.1308 239° Southwest 452 837 17.100 -6.750 Descending Memphis Center
Sat 09:55:32 32.4089 -90.2442 239° Southwest 429 795 14.500 -2.600 Descending Memphis Center
Sat 09:56:32 32.3567 -90.3475 239° Southwest 400 740 11.900 -1.950 Descending Memphis Center
Sat 09:57:32 32.3086 -90.4433 239° Southwest 371 687 10.600 -1.550 Descending Memphis Center
Sat 09:58:32 32.2669 -90.5219 238° Southwest 328 607 8.800 -2.300 Descending Memphis Center
Sat 09:59:32 32.2311 -90.5956 240° Southwest 285 528 6.000 -2.750 Descending Memphis Center
Sat 10:00:32 32.1936 -90.6667 238° Southwest 269 499 3.300 -1.800 Descending Memphis Center
Sat 10:01:32 32.1642 -90.7328 242° Southwest 247 457 2.400 -900 Descending Memphis Center

Login

Don't have an account? Register now (free) for customized features, flight alerts, and more!